sensor_id;sensor_type;location;lat;lon;timestamp;pressure;altitude;pressure_sealevel;temperature;humidity
79544;BME280;68994;47.176;7.534;2023-04-25T00:02:24;95559.75;;;8.85;57.10
79544;BME280;68994;47.176;7.534;2023-04-25T00:04:52;95563.75;;;8.88;57.07
79544;BME280;68994;47.176;7.534;2023-04-25T00:07:19;95563.00;;;8.98;54.73
79544;BME280;68994;47.176;7.534;2023-04-25T00:09:46;95560.09;;;8.99;55.30
79544;BME280;68994;47.176;7.534;2023-04-25T00:12:13;95552.06;;;8.89;55.50
79544;BME280;68994;47.176;7.534;2023-04-25T00:14:40;95553.34;;;8.86;55.91
79544;BME280;68994;47.176;7.534;2023-04-25T00:17:07;95554.19;;;8.92;55.81
79544;BME280;68994;47.176;7.534;2023-04-25T00:19:34;95556.00;;;8.86;56.19
79544;BME280;68994;47.176;7.534;2023-04-25T00:22:02;95558.66;;;8.86;56.08
79544;BME280;68994;47.176;7.534;2023-04-25T00:24:28;95550.19;;;8.89;56.33
79544;BME280;68994;47.176;7.534;2023-04-25T00:26:55;95547.25;;;8.91;57.52
79544;BME280;68994;47.176;7.534;2023-04-25T00:29:21;95549.38;;;8.89;56.32
79544;BME280;68994;47.176;7.534;2023-04-25T00:31:48;95549.34;;;8.79;57.30
79544;BME280;68994;47.176;7.534;2023-04-25T00:34:15;95546.66;;;8.73;57.37
79544;BME280;68994;47.176;7.534;2023-04-25T00:36:41;95542.38;;;8.72;57.13
79544;BME280;68994;47.176;7.534;2023-04-25T00:39:09;95539.72;;;8.72;57.55
79544;BME280;68994;47.176;7.534;2023-04-25T00:41:36;95540.72;;;8.66;57.95
79544;BME280;68994;47.176;7.534;2023-04-25T00:44:03;95539.19;;;8.76;56.79
79544;BME280;68994;47.176;7.534;2023-04-25T00:46:30;95540.84;;;8.82;56.89
79544;BME280;68994;47.176;7.534;2023-04-25T00:48:57;95538.63;;;8.68;58.19
79544;BME280;68994;47.176;7.534;2023-04-25T00:51:24;95540.50;;;8.73;57.19
79544;BME280;68994;47.176;7.534;2023-04-25T00:53:52;95530.16;;;8.71;56.88
79544;BME280;68994;47.176;7.534;2023-04-25T00:56:20;95522.97;;;8.72;55.73
79544;BME280;68994;47.176;7.534;2023-04-25T00:58:47;95528.22;;;8.62;59.32
79544;BME280;68994;47.176;7.534;2023-04-25T01:01:14;95526.28;;;8.52;60.69
79544;BME280;68994;47.176;7.534;2023-04-25T01:03:42;95533.00;;;8.60;57.60
79544;BME280;68994;47.176;7.534;2023-04-25T01:06:10;95523.13;;;8.55;59.29
79544;BME280;68994;47.176;7.534;2023-04-25T01:08:37;95517.19;;;8.48;59.87
79544;BME280;68994;47.176;7.534;2023-04-25T01:11:04;95508.63;;;8.41;60.95
79544;BME280;68994;47.176;7.534;2023-04-25T01:13:33;95505.97;;;8.41;59.15
79544;BME280;68994;47.176;7.534;2023-04-25T01:16:00;95512.59;;;8.38;62.34
79544;BME280;68994;47.176;7.534;2023-04-25T01:18:27;95509.50;;;8.46;59.44
79544;BME280;68994;47.176;7.534;2023-04-25T01:20:54;95514.28;;;8.49;58.20
79544;BME280;68994;47.176;7.534;2023-04-25T01:23:23;95518.22;;;8.42;60.50
79544;BME280;68994;47.176;7.534;2023-04-25T01:25:50;95511.78;;;8.38;61.58
79544;BME280;68994;47.176;7.534;2023-04-25T01:28:17;95510.16;;;8.31;63.33
79544;BME280;68994;47.176;7.534;2023-04-25T01:30:45;95512.22;;;8.24;62.99
79544;BME280;68994;47.176;7.534;2023-04-25T01:33:14;95503.91;;;8.15;63.47
79544;BME280;68994;47.176;7.534;2023-04-25T01:35:41;95501.72;;;8.07;65.14
79544;BME280;68994;47.176;7.534;2023-04-25T01:38:08;95503.34;;;8.08;63.11
79544;BME280;68994;47.176;7.534;2023-04-25T01:40:38;95501.22;;;8.10;64.53
79544;BME280;68994;47.176;7.534;2023-04-25T01:43:06;95503.84;;;8.05;65.46
79544;BME280;68994;47.176;7.534;2023-04-25T01:45:36;95506.16;;;7.96;66.15
79544;BME280;68994;47.176;7.534;2023-04-25T01:48:04;95502.91;;;7.89;67.20
79544;BME280;68994;47.176;7.534;2023-04-25T01:50:31;95497.53;;;7.84;66.62
79544;BME280;68994;47.176;7.534;2023-04-25T01:52:58;95492.28;;;7.89;64.86
79544;BME280;68994;47.176;7.534;2023-04-25T01:55:27;95490.38;;;7.85;68.79
79544;BME280;68994;47.176;7.534;2023-04-25T01:57:55;95496.00;;;7.88;64.67
79544;BME280;68994;47.176;7.534;2023-04-25T02:00:22;95495.50;;;7.91;63.68
79544;BME280;68994;47.176;7.534;2023-04-25T02:02:48;95490.81;;;8.04;63.72
79544;BME280;68994;47.176;7.534;2023-04-25T02:05:16;95483.28;;;7.95;64.04
79544;BME280;68994;47.176;7.534;2023-04-25T02:07:43;95471.09;;;7.94;64.79
79544;BME280;68994;47.176;7.534;2023-04-25T02:10:09;95480.88;;;7.94;65.43
79544;BME280;68994;47.176;7.534;2023-04-25T02:12:36;95484.88;;;7.91;66.70
79544;BME280;68994;47.176;7.534;2023-04-25T02:15:05;95475.03;;;7.92;65.66
79544;BME280;68994;47.176;7.534;2023-04-25T02:17:32;95480.09;;;7.93;63.12
79544;BME280;68994;47.176;7.534;2023-04-25T02:19:59;95476.94;;;7.96;63.53
79544;BME280;68994;47.176;7.534;2023-04-25T02:22:25;95476.91;;;7.91;65.21
79544;BME280;68994;47.176;7.534;2023-04-25T02:24:55;95481.66;;;7.89;66.10
79544;BME280;68994;47.176;7.534;2023-04-25T02:27:22;95483.75;;;7.87;67.04
79544;BME280;68994;47.176;7.534;2023-04-25T02:29:48;95481.91;;;7.88;65.40
79544;BME280;68994;47.176;7.534;2023-04-25T02:32:16;95480.31;;;7.87;65.43
79544;BME280;68994;47.176;7.534;2023-04-25T02:34:43;95479.81;;;7.90;64.11
79544;BME280;68994;47.176;7.534;2023-04-25T02:37:09;95477.94;;;7.90;63.99
79544;BME280;68994;47.176;7.534;2023-04-25T02:39:36;95475.88;;;7.97;63.71
79544;BME280;68994;47.176;7.534;2023-04-25T02:42:03;95476.44;;;7.99;63.09
79544;BME280;68994;47.176;7.534;2023-04-25T02:44:29;95477.47;;;7.98;64.36
79544;BME280;68994;47.176;7.534;2023-04-25T02:46:56;95474.56;;;8.00;64.09
79544;BME280;68994;47.176;7.534;2023-04-25T02:49:24;95467.56;;;7.89;65.24
79544;BME280;68994;47.176;7.534;2023-04-25T02:51:50;95463.41;;;7.98;62.98
79544;BME280;68994;47.176;7.534;2023-04-25T02:54:17;95465.97;;;7.88;64.00
79544;BME280;68994;47.176;7.534;2023-04-25T02:56:44;95464.69;;;7.95;62.73
79544;BME280;68994;47.176;7.534;2023-04-25T02:59:10;95466.78;;;7.88;64.63
79544;BME280;68994;47.176;7.534;2023-04-25T03:01:37;95461.22;;;7.90;63.75
79544;BME280;68994;47.176;7.534;2023-04-25T03:04:04;95465.66;;;7.84;64.35
79544;BME280;68994;47.176;7.534;2023-04-25T03:06:32;95464.91;;;7.89;63.64
79544;BME280;68994;47.176;7.534;2023-04-25T03:08:58;95458.75;;;7.83;64.76
79544;BME280;68994;47.176;7.534;2023-04-25T03:11:25;95446.44;;;7.72;65.68
79544;BME280;68994;47.176;7.534;2023-04-25T03:13:52;95451.78;;;7.77;64.74
79544;BME280;68994;47.176;7.534;2023-04-25T03:16:18;95446.41;;;7.67;64.68
79544;BME280;68994;47.176;7.534;2023-04-25T03:18:45;95452.41;;;7.57;66.43
79544;BME280;68994;47.176;7.534;2023-04-25T03:21:12;95452.53;;;7.40;67.20
79544;BME280;68994;47.176;7.534;2023-04-25T03:23:40;95449.31;;;7.38;66.26
79544;BME280;68994;47.176;7.534;2023-04-25T03:26:06;95441.38;;;7.38;66.26
79544;BME280;68994;47.176;7.534;2023-04-25T03:28:33;95452.72;;;7.33;66.74
79544;BME280;68994;47.176;7.534;2023-04-25T03:30:59;95445.50;;;7.29;67.11
79544;BME280;68994;47.176;7.534;2023-04-25T03:33:26;95450.56;;;7.30;66.53
79544;BME280;68994;47.176;7.534;2023-04-25T03:35:53;95452.28;;;7.41;65.58
79544;BME280;68994;47.176;7.534;2023-04-25T03:38:19;95446.47;;;7.45;66.87
79544;BME280;68994;47.176;7.534;2023-04-25T03:40:47;95445.19;;;7.52;65.11
79544;BME280;68994;47.176;7.534;2023-04-25T03:43:14;95458.19;;;7.49;65.31
79544;BME280;68994;47.176;7.534;2023-04-25T03:45:40;95453.06;;;7.42;66.87
79544;BME280;68994;47.176;7.534;2023-04-25T03:48:07;95450.38;;;7.37;67.66
79544;BME280;68994;47.176;7.534;2023-04-25T03:50:34;95451.78;;;7.45;65.82
79544;BME280;68994;47.176;7.534;2023-04-25T03:53:00;95448.84;;;7.41;66.42
79544;BME280;68994;47.176;7.534;2023-04-25T03:55:27;95448.78;;;7.36;67.59
79544;BME280;68994;47.176;7.534;2023-04-25T03:57:55;95458.28;;;7.32;67.58
79544;BME280;68994;47.176;7.534;2023-04-25T04:00:23;95456.69;;;7.31;68.47
79544;BME280;68994;47.176;7.534;2023-04-25T04:02:50;95459.94;;;7.38;67.13
79544;BME280;68994;47.176;7.534;2023-04-25T04:05:16;95456.31;;;7.44;66.97
79544;BME280;68994;47.176;7.534;2023-04-25T04:07:43;95457.69;;;7.52;66.48
79544;BME280;68994;47.176;7.534;2023-04-25T04:10:10;95456.31;;;7.44;67.72
79544;BME280;68994;47.176;7.534;2023-04-25T04:12:37;95450.47;;;7.47;67.10
79544;BME280;68994;47.176;7.534;2023-04-25T04:15:06;95452.47;;;7.35;68.15
79544;BME280;68994;47.176;7.534;2023-04-25T04:17:33;95450.75;;;7.23;69.84
79544;BME280;68994;47.176;7.534;2023-04-25T04:20:00;95449.63;;;7.14;70.41
79544;BME280;68994;47.176;7.534;2023-04-25T04:22:28;95445.28;;;7.08;70.36
79544;BME280;68994;47.176;7.534;2023-04-25T04:24:55;95444.81;;;7.11;70.93
79544;BME280;68994;47.176;7.534;2023-04-25T04:27:22;95446.72;;;7.16;69.54
79544;BME280;68994;47.176;7.534;2023-04-25T04:29:49;95439.00;;;7.14;72.06
79544;BME280;68994;47.176;7.534;2023-04-25T04:32:18;95449.41;;;7.21;69.02
79544;BME280;68994;47.176;7.534;2023-04-25T04:34:45;95445.00;;;7.32;68.16
79544;BME280;68994;47.176;7.534;2023-04-25T04:37:12;95445.06;;;7.37;68.83
79544;BME280;68994;47.176;7.534;2023-04-25T04:39:40;95451.03;;;7.49;67.55
79544;BME280;68994;47.176;7.534;2023-04-25T04:42:07;95446.22;;;7.46;68.10
79544;BME280;68994;47.176;7.534;2023-04-25T04:44:33;95448.34;;;7.44;69.25
79544;BME280;68994;47.176;7.534;2023-04-25T04:47:00;95444.41;;;7.52;68.04
79544;BME280;68994;47.176;7.534;2023-04-25T04:49:30;95449.41;;;7.48;68.63
79544;BME280;68994;47.176;7.534;2023-04-25T04:51:56;95456.97;;;7.61;67.54
79544;BME280;68994;47.176;7.534;2023-04-25T04:54:25;95460.63;;;7.55;68.05
79544;BME280;68994;47.176;7.534;2023-04-25T04:56:52;95468.69;;;7.66;65.91
79544;BME280;68994;47.176;7.534;2023-04-25T04:59:18;95468.69;;;7.66;66.60
79544;BME280;68994;47.176;7.534;2023-04-25T05:01:45;95480.38;;;7.65;67.99
79544;BME280;68994;47.176;7.534;2023-04-25T05:04:12;95481.41;;;7.64;68.52
79544;BME280;68994;47.176;7.534;2023-04-25T05:06:40;95486.63;;;7.53;71.06
79544;BME280;68994;47.176;7.534;2023-04-25T05:09:06;95485.38;;;7.34;71.86
79544;BME280;68994;47.176;7.534;2023-04-25T05:11:33;95490.50;;;7.18;73.66
79544;BME280;68994;47.176;7.534;2023-04-25T05:14:00;95489.31;;;7.04;74.67
79544;BME280;68994;47.176;7.534;2023-04-25T05:16:26;95498.66;;;6.90;76.11
79544;BME280;68994;47.176;7.534;2023-04-25T05:18:53;95503.03;;;6.79;76.83
79544;BME280;68994;47.176;7.534;2023-04-25T05:21:19;95502.22;;;6.78;76.52
79544;BME280;68994;47.176;7.534;2023-04-25T05:23:47;95493.09;;;6.69;78.56
79544;BME280;68994;47.176;7.534;2023-04-25T05:26:14;95493.84;;;6.64;78.78
79544;BME280;68994;47.176;7.534;2023-04-25T05:28:41;95500.56;;;6.72;77.87
79544;BME280;68994;47.176;7.534;2023-04-25T05:31:09;95503.72;;;6.69;78.63
79544;BME280;68994;47.176;7.534;2023-04-25T05:33:36;95509.06;;;6.74;77.65
79544;BME280;68994;47.176;7.534;2023-04-25T05:36:03;95517.53;;;6.71;79.24
79544;BME280;68994;47.176;7.534;2023-04-25T05:38:29;95515.19;;;6.75;78.33
79544;BME280;68994;47.176;7.534;2023-04-25T05:40:57;95518.00;;;6.68;79.43
79544;BME280;68994;47.176;7.534;2023-04-25T05:43:24;95519.13;;;6.72;78.63
79544;BME280;68994;47.176;7.534;2023-04-25T05:45:50;95518.78;;;6.68;78.56
79544;BME280;68994;47.176;7.534;2023-04-25T05:48:17;95518.06;;;6.73;78.63
79544;BME280;68994;47.176;7.534;2023-04-25T05:50:44;95516.97;;;6.69;78.82
79544;BME280;68994;47.176;7.534;2023-04-25T05:53:10;95517.75;;;6.69;79.47
79544;BME280;68994;47.176;7.534;2023-04-25T05:55:37;95522.19;;;6.64;79.35
79544;BME280;68994;47.176;7.534;2023-04-25T05:58:05;95525.88;;;6.63;79.63
79544;BME280;68994;47.176;7.534;2023-04-25T06:00:32;95525.34;;;6.61;78.58
79544;BME280;68994;47.176;7.534;2023-04-25T06:02:59;95531.66;;;6.60;78.89
79544;BME280;68994;47.176;7.534;2023-04-25T06:05:26;95536.59;;;6.51;78.90
79544;BME280;68994;47.176;7.534;2023-04-25T06:07:52;95533.16;;;6.50;78.86
79544;BME280;68994;47.176;7.534;2023-04-25T06:10:19;95544.16;;;6.42;79.40
79544;BME280;68994;47.176;7.534;2023-04-25T06:12:46;95547.91;;;6.29;80.69
79544;BME280;68994;47.176;7.534;2023-04-25T06:15:14;95544.78;;;6.32;80.06
79544;BME280;68994;47.176;7.534;2023-04-25T06:17:41;95542.31;;;6.26;81.54
79544;BME280;68994;47.176;7.534;2023-04-25T06:20:08;95542.88;;;6.28;81.63
79544;BME280;68994;47.176;7.534;2023-04-25T06:22:35;95537.56;;;6.28;82.57
79544;BME280;68994;47.176;7.534;2023-04-25T06:25:02;95530.16;;;6.30;82.56
79544;BME280;68994;47.176;7.534;2023-04-25T06:27:29;95510.66;;;6.36;81.96
79544;BME280;68994;47.176;7.534;2023-04-25T06:29:56;95522.72;;;6.44;82.50
79544;BME280;68994;47.176;7.534;2023-04-25T06:32:24;95529.75;;;6.55;80.64
79544;BME280;68994;47.176;7.534;2023-04-25T06:34:52;95526.84;;;6.57;80.61
79544;BME280;68994;47.176;7.534;2023-04-25T06:37:19;95528.59;;;6.68;80.73
79544;BME280;68994;47.176;7.534;2023-04-25T06:39:46;95537.94;;;6.71;79.40
79544;BME280;68994;47.176;7.534;2023-04-25T06:42:12;95535.34;;;6.76;80.49
79544;BME280;68994;47.176;7.534;2023-04-25T06:44:39;95539.34;;;6.78;80.63
79544;BME280;68994;47.176;7.534;2023-04-25T06:47:05;95544.41;;;6.80;79.90
79544;BME280;68994;47.176;7.534;2023-04-25T06:49:33;95540.97;;;6.79;80.85
79544;BME280;68994;47.176;7.534;2023-04-25T06:52:00;95539.00;;;6.92;80.84
79544;BME280;68994;47.176;7.534;2023-04-25T06:54:26;95536.06;;;7.10;79.44
79544;BME280;68994;47.176;7.534;2023-04-25T06:56:55;95531.38;;;7.17;79.81
79544;BME280;68994;47.176;7.534;2023-04-25T06:59:22;95538.53;;;7.17;79.39
79544;BME280;68994;47.176;7.534;2023-04-25T07:01:49;95534.03;;;7.17;79.19
79544;BME280;68994;47.176;7.534;2023-04-25T07:04:16;95528.22;;;7.20;80.21
79544;BME280;68994;47.176;7.534;2023-04-25T07:06:44;95538.41;;;7.29;80.32
79544;BME280;68994;47.176;7.534;2023-04-25T07:09:12;95523.47;;;7.45;80.21
79544;BME280;68994;47.176;7.534;2023-04-25T07:11:39;95530.72;;;7.54;78.54
79544;BME280;68994;47.176;7.534;2023-04-25T07:14:05;95532.13;;;7.62;77.90
79544;BME280;68994;47.176;7.534;2023-04-25T07:16:32;95534.47;;;7.58;80.11
79544;BME280;68994;47.176;7.534;2023-04-25T07:18:58;95534.03;;;7.67;77.37
79544;BME280;68994;47.176;7.534;2023-04-25T07:21:25;95537.88;;;7.54;78.85
79544;BME280;68994;47.176;7.534;2023-04-25T07:23:53;95535.41;;;7.47;79.25
79544;BME280;68994;47.176;7.534;2023-04-25T07:26:20;95535.94;;;7.44;79.59
79544;BME280;68994;47.176;7.534;2023-04-25T07:28:46;95538.66;;;7.49;80.26
79544;BME280;68994;47.176;7.534;2023-04-25T07:31:16;95543.13;;;7.49;79.25
79544;BME280;68994;47.176;7.534;2023-04-25T07:33:43;95542.44;;;7.58;79.48
79544;BME280;68994;47.176;7.534;2023-04-25T07:36:09;95540.34;;;7.60;79.48
79544;BME280;68994;47.176;7.534;2023-04-25T07:38:36;95537.00;;;7.70;77.75
79544;BME280;68994;47.176;7.534;2023-04-25T07:41:04;95538.84;;;7.70;77.71
79544;BME280;68994;47.176;7.534;2023-04-25T07:43:31;95545.16;;;7.64;79.09
79544;BME280;68994;47.176;7.534;2023-04-25T07:45:57;95546.13;;;7.57;78.30
79544;BME280;68994;47.176;7.534;2023-04-25T07:48:24;95556.28;;;7.60;78.45
79544;BME280;68994;47.176;7.534;2023-04-25T07:50:50;95547.25;;;7.61;77.62
79544;BME280;68994;47.176;7.534;2023-04-25T07:53:17;95561.59;;;7.60;77.57
79544;BME280;68994;47.176;7.534;2023-04-25T07:55:44;95553.06;;;7.58;77.45
79544;BME280;68994;47.176;7.534;2023-04-25T07:58:12;95553.66;;;7.66;78.15
79544;BME280;68994;47.176;7.534;2023-04-25T08:00:39;95566.81;;;7.77;78.26
79544;BME280;68994;47.176;7.534;2023-04-25T08:03:06;95572.03;;;7.94;79.20
79544;BME280;68994;47.176;7.534;2023-04-25T08:05:33;95576.34;;;8.01;78.61
79544;BME280;68994;47.176;7.534;2023-04-25T08:07:59;95581.75;;;8.11;77.09
79544;BME280;68994;47.176;7.534;2023-04-25T08:10:27;95583.72;;;7.93;75.96
79544;BME280;68994;47.176;7.534;2023-04-25T08:12:54;95597.75;;;7.89;75.89
79544;BME280;68994;47.176;7.534;2023-04-25T08:15:21;95593.63;;;7.76;75.61
79544;BME280;68994;47.176;7.534;2023-04-25T08:17:48;95603.09;;;7.67;76.58
79544;BME280;68994;47.176;7.534;2023-04-25T08:20:15;95606.97;;;7.59;77.96
79544;BME280;68994;47.176;7.534;2023-04-25T08:22:41;95603.28;;;7.60;77.94
79544;BME280;68994;47.176;7.534;2023-04-25T08:25:08;95605.31;;;7.75;77.91
79544;BME280;68994;47.176;7.534;2023-04-25T08:27:34;95597.78;;;7.94;77.68
79544;BME280;68994;47.176;7.534;2023-04-25T08:30:01;95611.75;;;8.06;76.91
79544;BME280;68994;47.176;7.534;2023-04-25T08:32:29;95617.53;;;8.30;77.53
79544;BME280;68994;47.176;7.534;2023-04-25T08:34:56;95614.41;;;8.66;78.22
79544;BME280;68994;47.176;7.534;2023-04-25T08:37:22;95621.25;;;8.94;75.43
79544;BME280;68994;47.176;7.534;2023-04-25T08:39:49;95621.34;;;9.09;74.29
79544;BME280;68994;47.176;7.534;2023-04-25T08:42:17;95628.31;;;9.16;70.14
79544;BME280;68994;47.176;7.534;2023-04-25T08:44:45;95639.47;;;9.13;73.17
79544;BME280;68994;47.176;7.534;2023-04-25T08:47:11;95635.28;;;9.22;74.73
79544;BME280;68994;47.176;7.534;2023-04-25T08:49:43;95638.22;;;9.25;72.27
79544;BME280;68994;47.176;7.534;2023-04-25T08:52:13;95635.34;;;9.32;70.47
79544;BME280;68994;47.176;7.534;2023-04-25T08:54:41;95638.78;;;9.33;73.32
79544;BME280;68994;47.176;7.534;2023-04-25T08:57:09;95651.56;;;9.31;74.26
79544;BME280;68994;47.176;7.534;2023-04-25T08:59:37;95653.63;;;9.18;70.25
79544;BME280;68994;47.176;7.534;2023-04-25T09:02:05;95653.69;;;8.91;72.08
79544;BME280;68994;47.176;7.534;2023-04-25T09:04:34;95664.78;;;8.78;73.12
79544;BME280;68994;47.176;7.534;2023-04-25T09:07:02;95669.25;;;8.72;72.32
79544;BME280;68994;47.176;7.534;2023-04-25T09:09:29;95678.16;;;8.56;75.65
79544;BME280;68994;47.176;7.534;2023-04-25T09:11:55;95680.78;;;8.50;74.11
79544;BME280;68994;47.176;7.534;2023-04-25T09:14:23;95687.25;;;8.38;74.78
79544;BME280;68994;47.176;7.534;2023-04-25T09:16:58;95689.28;;;8.25;76.42
79544;BME280;68994;47.176;7.534;2023-04-25T09:19:26;95700.16;;;8.24;75.88
79544;BME280;68994;47.176;7.534;2023-04-25T09:21:54;95695.06;;;8.22;75.75
79544;BME280;68994;47.176;7.534;2023-04-25T09:24:33;95695.28;;;8.15;74.80
79544;BME280;68994;47.176;7.534;2023-04-25T09:27:03;95700.09;;;8.18;74.19
79544;BME280;68994;47.176;7.534;2023-04-25T09:29:30;95698.13;;;8.36;71.71
79544;BME280;68994;47.176;7.534;2023-04-25T09:32:11;95698.34;;;8.51;74.59
79544;BME280;68994;47.176;7.534;2023-04-25T09:34:39;95689.91;;;8.60;71.01
79544;BME280;68994;47.176;7.534;2023-04-25T09:37:07;95683.59;;;8.71;69.96
79544;BME280;68994;47.176;7.534;2023-04-25T09:39:34;95683.50;;;8.93;70.24
79544;BME280;68994;47.176;7.534;2023-04-25T09:42:02;95684.81;;;9.28;69.59
79544;BME280;68994;47.176;7.534;2023-04-25T09:44:29;95678.72;;;9.80;70.34
79544;BME280;68994;47.176;7.534;2023-04-25T09:46:56;95673.00;;;10.25;66.85
79544;BME280;68994;47.176;7.534;2023-04-25T09:49:23;95671.50;;;10.60;65.82
79544;BME280;68994;47.176;7.534;2023-04-25T09:51:55;95679.00;;;10.78;60.79
79544;BME280;68994;47.176;7.534;2023-04-25T09:54:23;95680.88;;;10.88;60.04
79544;BME280;68994;47.176;7.534;2023-04-25T09:56:52;95684.22;;;11.70;58.47
79544;BME280;68994;47.176;7.534;2023-04-25T09:59:20;95693.97;;;12.61;56.01
79544;BME280;68994;47.176;7.534;2023-04-25T10:01:48;95692.13;;;12.96;53.66
79544;BME280;68994;47.176;7.534;2023-04-25T10:04:20;95693.91;;;12.71;54.33
79544;BME280;68994;47.176;7.534;2023-04-25T10:06:49;95699.00;;;12.23;52.64
79544;BME280;68994;47.176;7.534;2023-04-25T10:09:19;95716.78;;;11.83;57.47
79544;BME280;68994;47.176;7.534;2023-04-25T10:11:47;95726.47;;;11.63;60.61
79544;BME280;68994;47.176;7.534;2023-04-25T10:14:15;95726.78;;;11.41;56.21
79544;BME280;68994;47.176;7.534;2023-04-25T10:16:42;95733.44;;;11.28;63.30
79544;BME280;68994;47.176;7.534;2023-04-25T10:19:09;95737.72;;;11.14;61.27
79544;BME280;68994;47.176;7.534;2023-04-25T10:21:44;95736.91;;;11.13;60.78
79544;BME280;68994;47.176;7.534;2023-04-25T10:24:12;95741.75;;;11.11;56.96
79544;BME280;68994;47.176;7.534;2023-04-25T10:26:40;95745.47;;;11.21;61.73
79544;BME280;68994;47.176;7.534;2023-04-25T10:29:06;95744.91;;;11.44;61.72
79544;BME280;68994;47.176;7.534;2023-04-25T10:31:44;95747.06;;;11.42;57.55
79544;BME280;68994;47.176;7.534;2023-04-25T10:34:11;95752.13;;;11.39;55.95
79544;BME280;68994;47.176;7.534;2023-04-25T10:36:38;95745.75;;;11.35;58.06
79544;BME280;68994;47.176;7.534;2023-04-25T10:39:05;95758.56;;;11.53;62.13
79544;BME280;68994;47.176;7.534;2023-04-25T10:41:46;95756.94;;;11.47;55.78
79544;BME280;68994;47.176;7.534;2023-04-25T10:44:13;95754.81;;;11.28;56.48
79544;BME280;68994;47.176;7.534;2023-04-25T10:46:44;95760.41;;;11.37;60.79
79544;BME280;68994;47.176;7.534;2023-04-25T10:49:10;95755.34;;;11.61;61.64
79544;BME280;68994;47.176;7.534;2023-04-25T10:52:11;95752.66;;;11.66;56.46
79544;BME280;68994;47.176;7.534;2023-04-25T10:54:40;95759.09;;;11.50;57.29
79544;BME280;68994;47.176;7.534;2023-04-25T10:57:07;95767.38;;;11.28;54.43
79544;BME280;68994;47.176;7.534;2023-04-25T10:59:33;95766.81;;;10.80;59.00
79544;BME280;68994;47.176;7.534;2023-04-25T11:02:11;95772.28;;;10.42;56.26
79544;BME280;68994;47.176;7.534;2023-04-25T11:04:38;95770.56;;;10.20;54.78
79544;BME280;68994;47.176;7.534;2023-04-25T11:07:09;95773.69;;;10.02;55.49
79544;BME280;68994;47.176;7.534;2023-04-25T11:09:39;95776.81;;;9.89;56.24
79544;BME280;68994;47.176;7.534;2023-04-25T11:12:08;95775.16;;;9.72;56.87
79544;BME280;68994;47.176;7.534;2023-04-25T11:14:35;95766.56;;;9.65;58.55
79544;BME280;68994;47.176;7.534;2023-04-25T11:17:03;95771.19;;;9.80;59.76
79544;BME280;68994;47.176;7.534;2023-04-25T11:19:31;95762.41;;;9.84;58.43
79544;BME280;68994;47.176;7.534;2023-04-25T11:21:58;95774.38;;;9.82;55.65
79544;BME280;68994;47.176;7.534;2023-04-25T11:24:26;95776.19;;;9.71;54.86
79544;BME280;68994;47.176;7.534;2023-04-25T11:26:53;95776.97;;;9.66;56.44
79544;BME280;68994;47.176;7.534;2023-04-25T11:29:22;95769.75;;;9.62;56.98
79544;BME280;68994;47.176;7.534;2023-04-25T11:31:48;95769.91;;;9.88;58.84
79544;BME280;68994;47.176;7.534;2023-04-25T11:34:18;95763.41;;;10.26;56.49
79544;BME280;68994;47.176;7.534;2023-04-25T11:36:45;95763.88;;;10.76;54.15
79544;BME280;68994;47.176;7.534;2023-04-25T11:39:12;95761.22;;;11.17;54.75
79544;BME280;68994;47.176;7.534;2023-04-25T11:41:41;95767.56;;;11.83;51.25
79544;BME280;68994;47.176;7.534;2023-04-25T11:44:08;95764.56;;;12.20;49.96
79544;BME280;68994;47.176;7.534;2023-04-25T11:46:34;95758.69;;;13.52;47.91
79544;BME280;68994;47.176;7.534;2023-04-25T11:49:01;95751.13;;;14.94;45.98
79544;BME280;68994;47.176;7.534;2023-04-25T11:51:29;95752.34;;;15.21;44.37
79544;BME280;68994;47.176;7.534;2023-04-25T11:53:56;95743.94;;;16.85;45.54
79544;BME280;68994;47.176;7.534;2023-04-25T11:56:22;95737.41;;;17.99;35.65
79544;BME280;68994;47.176;7.534;2023-04-25T11:58:56;95739.09;;;18.84;35.14
79544;BME280;68994;47.176;7.534;2023-04-25T12:01:28;95733.53;;;18.98;34.76
79544;BME280;68994;47.176;7.534;2023-04-25T12:03:55;95743.03;;;16.62;34.52
79544;BME280;68994;47.176;7.534;2023-04-25T12:06:26;95751.03;;;16.67;38.40
79544;BME280;68994;47.176;7.534;2023-04-25T12:09:01;95752.44;;;17.15;36.87
79544;BME280;68994;47.176;7.534;2023-04-25T12:11:29;95766.31;;;16.03;35.82
79544;BME280;68994;47.176;7.534;2023-04-25T12:13:56;95751.94;;;15.14;40.15
79544;BME280;68994;47.176;7.534;2023-04-25T12:16:27;95750.06;;;15.94;40.01
79544;BME280;68994;47.176;7.534;2023-04-25T12:18:55;95746.63;;;15.74;37.12
79544;BME280;68994;47.176;7.534;2023-04-25T12:21:22;95740.84;;;15.34;41.08
79544;BME280;68994;47.176;7.534;2023-04-25T12:23:48;95745.88;;;15.55;39.17
79544;BME280;68994;47.176;7.534;2023-04-25T12:26:18;95740.06;;;15.15;39.54
79544;BME280;68994;47.176;7.534;2023-04-25T12:28:45;95755.22;;;14.92;42.31
79544;BME280;68994;47.176;7.534;2023-04-25T12:31:13;95743.06;;;15.46;43.42
79544;BME280;68994;47.176;7.534;2023-04-25T12:33:41;95741.09;;;16.26;38.43
79544;BME280;68994;47.176;7.534;2023-04-25T12:36:13;95726.31;;;17.02;36.47
79544;BME280;68994;47.176;7.534;2023-04-25T12:38:40;95729.03;;;17.24;35.55
79544;BME280;68994;47.176;7.534;2023-04-25T12:41:08;95729.34;;;17.77;34.57
79544;BME280;68994;47.176;7.534;2023-04-25T12:43:36;95733.47;;;18.06;37.17
79544;BME280;68994;47.176;7.534;2023-04-25T12:46:03;95719.63;;;17.98;32.27
79544;BME280;68994;47.176;7.534;2023-04-25T12:48:30;95719.56;;;18.30;30.93
79544;BME280;68994;47.176;7.534;2023-04-25T12:50:56;95730.06;;;17.91;31.70
79544;BME280;68994;47.176;7.534;2023-04-25T12:53:23;95729.16;;;17.19;36.34
79544;BME280;68994;47.176;7.534;2023-04-25T12:55:50;95737.00;;;17.30;34.62
79544;BME280;68994;47.176;7.534;2023-04-25T12:58:17;95730.31;;;17.04;36.02
79544;BME280;68994;47.176;7.534;2023-04-25T13:00:46;95734.03;;;15.89;36.93
79544;BME280;68994;47.176;7.534;2023-04-25T13:03:13;95739.06;;;16.60;39.16
79544;BME280;68994;47.176;7.534;2023-04-25T13:05:40;95729.88;;;17.11;36.17
79544;BME280;68994;47.176;7.534;2023-04-25T13:08:06;95736.00;;;17.25;35.75
79544;BME280;68994;47.176;7.534;2023-04-25T13:10:33;95724.91;;;17.04;35.66